Time;durP1;ratioP1;P1;durP2;ratioP2;P2;SDS_P1;SDS_P2;PMS_P1;PMS_P2;Temp;Humidity;BMP_temperature;BMP_pressure;BME280_temperature;BME280_humidity;BME280_pressure;Samples;Min_cycle;Max_cycle;Signal;HPM_P1;HPM_P2
2022/06/20 00:02:21;;;;;;;12.37;8.60;;;27.70;40.00;;;;;;20493;6767;279225;-85
2022/06/20 00:04:57;;;;;;;13.17;8.20;;;28.10;39.30;;;;;;20863;6771;118168;-86
2022/06/20 00:07:32;;;;;;;14.10;8.63;;;28.00;39.20;;;;;;20556;6784;276911;-86
2022/06/20 00:10:08;;;;;;;10.65;8.38;;;28.10;38.70;;;;;;20691;6759;288430;-86
2022/06/20 00:12:43;;;;;;;12.68;8.57;;;28.30;38.50;;;;;;20438;6830;311869;-85
2022/06/20 00:15:32;;;;;;;13.07;8.03;;;28.50;38.30;;;;;;20532;6784;279030;-87
2022/06/20 00:18:08;;;;;;;8.37;7.47;;;28.50;37.40;;;;;;20812;6772;117301;-86
2022/06/20 00:20:43;;;;;;;8.83;7.13;;;28.20;37.70;;;;;;20587;6770;311090;-86
2022/06/20 00:23:19;;;;;;;9.30;6.80;;;28.20;38.20;;;;;;20780;6770;117415;-86
2022/06/20 00:25:54;;;;;;;14.97;7.50;;;28.00;38.10;;;;;;20615;6769;306755;-86
2022/06/20 00:28:30;;;;;;;8.27;7.37;;;28.00;37.10;;;;;;20821;6769;117401;-86
2022/06/20 00:31:06;;;;;;;13.27;7.07;;;27.80;37.60;;;;;;20756;6774;117058;-88
2022/06/20 00:33:41;;;;;;;11.57;8.10;;;27.50;38.20;;;;;;20662;6759;306169;-86
2022/06/20 00:36:17;;;;;;;11.80;8.38;;;27.70;38.30;;;;;;20556;6786;307928;-86
2022/06/20 00:38:52;;;;;;;12.83;8.73;;;27.90;38.90;;;;;;20811;6787;116553;-88
2022/06/20 00:41:31;;;;;;;13.43;8.20;;;27.70;39.20;;;;;;20705;6772;117727;-85
2022/06/20 00:44:07;;;;;;;13.83;7.97;;;27.40;39.90;;;;;;20743;6794;122543;-85
2022/06/20 00:46:42;;;;;;;10.43;9.00;;;27.10;40.80;;;;;;20613;6769;303022;-85
2022/06/20 00:49:18;;;;;;;12.77;9.37;;;27.10;41.80;;;;;;20574;6769;306735;-85
2022/06/20 00:51:56;;;;;;;12.65;9.35;;;27.40;41.60;;;;;;20537;6754;337841;-85
2022/06/20 00:54:38;;;;;;;11.13;9.13;;;27.60;41.50;;;;;;20878;6766;117093;-85
2022/06/20 00:57:14;;;;;;;11.97;9.10;;;27.20;41.70;;;;;;20635;6771;307641;-85
2022/06/20 00:59:49;;;;;;;10.47;8.60;;;27.20;42.50;;;;;;20811;6772;122246;-85
2022/06/20 01:02:25;;;;;;;11.00;9.17;;;27.00;42.50;;;;;;20700;6759;118129;-85
2022/06/20 01:05:00;;;;;;;14.80;10.07;;;26.70;43.00;;;;;;20540;6791;308517;-85
2022/06/20 01:07:44;;;;;;;13.17;10.07;;;26.80;43.60;;;;;;20555;6782;281208;-85
2022/06/20 01:10:19;;;;;;;12.47;9.37;;;27.00;42.80;;;;;;20578;6777;277373;-85
2022/06/20 01:12:55;;;;;;;10.73;9.50;;;27.20;42.60;;;;;;20569;6794;335728;-85
2022/06/20 01:15:34;;;;;;;12.67;9.27;;;27.30;42.20;;;;;;20648;6769;307659;-84
2022/06/20 01:18:15;;;;;;;11.38;8.68;;;27.40;42.10;;;;;;20656;6789;292272;-85
2022/06/20 01:20:52;;;;;;;15.17;9.97;;;27.50;41.80;;;;;;20640;6789;119278;-90
2022/06/20 01:23:30;;;;;;;15.80;9.53;;;27.20;42.10;;;;;;20748;6789;117621;-85
2022/06/20 01:26:16;;;;;;;13.33;9.40;;;26.80;42.70;;;;;;20563;6789;278553;-85
2022/06/20 01:28:52;;;;;;;18.43;9.13;;;26.70;42.70;;;;;;20809;6775;120694;-85
2022/06/20 01:31:31;;;;;;;13.93;9.20;;;26.70;42.70;;;;;;20754;6760;117530;-85
2022/06/20 01:34:06;;;;;;;10.87;9.20;;;26.50;43.00;;;;;;20812;6775;117773;-85
2022/06/20 01:39:37;;;;;;;12.55;9.70;;;26.20;43.30;;;;;;20565;6774;311393;-85
2022/06/20 01:42:21;;;;;;;10.83;9.70;;;26.50;42.70;;;;;;20692;6781;123286;-86
2022/06/20 01:45:57;;;;;;;13.60;9.50;;;26.50;42.70;;;;;;20623;6763;305093;-86
2022/06/20 01:47:46;;;;;;;11.98;8.98;;;27.00;42.00;;;;;;20589;6815;307189;-85
2022/06/20 01:50:21;;;;;;;11.37;8.47;;;27.10;42.00;;;;;;20844;6774;117509;-88
2022/06/20 01:52:57;;;;;;;12.40;9.40;;;26.90;42.50;;;;;;20592;6774;278613;-86
2022/06/20 01:55:32;;;;;;;15.03;9.30;;;27.00;43.50;;;;;;20868;6800;117174;-86
2022/06/20 01:58:08;;;;;;;13.47;9.20;;;26.80;42.60;;;;;;20642;6755;277788;-86
2022/06/20 02:00:44;;;;;;;13.20;9.40;;;26.90;42.10;;;;;;20615;6774;308303;-86
2022/06/20 02:03:19;;;;;;;11.93;9.52;;;27.20;41.60;;;;;;20658;6744;286053;-86
2022/06/20 02:05:55;;;;;;;11.80;9.15;;;27.30;41.90;;;;;;20642;6759;338943;-86
2022/06/20 02:08:31;;;;;;;13.77;9.43;;;27.50;41.70;;;;;;20850;6759;120063;-85
2022/06/20 02:11:10;;;;;;;9.97;8.90;;;27.20;41.90;;;;;;20709;6774;122347;-87
2022/06/20 02:13:45;;;;;;;13.57;9.63;;;26.80;42.40;;;;;;20696;6754;279097;-85
2022/06/20 02:16:21;;;;;;;12.97;9.20;;;26.80;42.40;;;;;;20830;6769;116475;-85
2022/06/20 02:18:57;;;;;;;12.40;9.60;;;26.80;42.60;;;;;;20580;6778;304256;-85
2022/06/20 02:21:33;;;;;;;11.63;9.80;;;26.80;42.60;;;;;;20513;6763;308870;-85
2022/06/20 02:24:13;;;;;;;12.87;9.53;;;27.00;41.90;;;;;;20826;6768;117709;-85
2022/06/20 02:26:47;;;;;;;11.17;8.73;;;26.80;42.10;;;;;;20824;6768;117126;-85
2022/06/20 02:29:23;;;;;;;13.67;9.33;;;26.50;42.90;;;;;;20849;6759;119170;-85
2022/06/20 02:32:05;;;;;;;13.53;10.10;;;26.20;43.50;;;;;;20515;6774;280603;-85
2022/06/20 02:34:40;;;;;;;10.23;9.23;;;26.40;43.30;;;;;;20889;6759;116895;-85
2022/06/20 02:37:19;;;;;;;10.13;8.57;;;26.30;43.40;;;;;;20875;6759;116960;-85
2022/06/20 02:39:52;;;;;;;16.67;9.53;;;26.10;43.70;;;;;;20937;6744;117451;-85
2022/06/20 02:42:30;;;;;;;12.67;9.60;;;25.90;43.90;;;;;;20486;6754;309710;-85
2022/06/20 02:45:07;;;;;;;15.37;10.10;;;26.20;43.90;;;;;;20641;6801;276409;-87
2022/06/20 02:47:43;;;;;;;12.90;9.90;;;26.60;43.30;;;;;;20682;6742;277539;-86
2022/06/20 02:50:18;;;;;;;14.63;8.90;;;26.80;42.40;;;;;;20860;6754;117215;-85
2022/06/20 02:52:54;;;;;;;12.73;9.30;;;26.70;42.80;;;;;;20680;6757;276894;-85
2022/06/20 02:55:29;;;;;;;13.73;9.27;;;26.70;42.50;;;;;;20665;6759;282111;-85
2022/06/20 02:58:11;;;;;;;13.67;9.50;;;26.90;41.80;;;;;;20828;6771;117579;-86
2022/06/20 03:00:55;;;;;;;13.73;9.93;;;26.70;42.20;;;;;;20825;6757;117259;-86
2022/06/20 03:03:34;;;;;;;9.43;7.13;;;26.40;43.70;;;;;;20794;6819;124830;-86
2022/06/20 03:06:10;;;;;;;11.30;7.27;;;26.00;44.50;;;;;;20888;6763;116951;-86
2022/06/20 03:08:45;;;;;;;12.87;7.50;;;25.60;45.60;;;;;;20684;6754;306252;-86
2022/06/20 03:11:22;;;;;;;12.40;7.93;;;25.80;47.10;;;;;;20583;6748;309134;-86
2022/06/20 03:13:57;;;;;;;11.38;8.40;;;26.10;47.50;;;;;;20693;6748;328770;-86
2022/06/20 03:16:33;;;;;;;10.13;8.77;;;26.30;47.10;;;;;;20985;6741;73207;-85
2022/06/20 03:19:11;;;;;;;14.53;8.57;;;26.10;47.30;;;;;;20718;6733;306295;-86
2022/06/20 03:21:47;;;;;;;10.10;7.80;;;26.10;46.90;;;;;;20775;6748;120877;-86
2022/06/20 03:24:24;;;;;;;10.07;8.40;;;26.00;46.80;;;;;;20676;6748;278948;-86
2022/06/20 03:26:58;;;;;;;9.63;8.30;;;26.00;47.00;;;;;;20882;6748;117718;-86
2022/06/20 03:29:34;;;;;;;11.50;8.67;;;25.90;47.20;;;;;;20658;6748;276932;-86
2022/06/20 03:32:10;;;;;;;11.25;8.77;;;26.00;47.70;;;;;;20490;6767;308803;-87
2022/06/20 03:34:46;;;;;;;11.23;8.70;;;26.20;47.60;;;;;;20883;6752;117651;-87
2022/06/20 03:37:22;;;;;;;14.73;9.00;;;26.00;47.40;;;;;;20845;6752;122129;-89
2022/06/20 03:39:57;;;;;;;11.33;9.40;;;25.70;47.90;;;;;;20890;6752;124435;-82
2022/06/20 03:42:33;;;;;;;12.13;9.60;;;25.40;48.10;;;;;;20670;6766;117518;-83
2022/06/20 03:45:08;;;;;;;10.57;9.70;;;25.20;48.30;;;;;;20781;6781;117374;-82
2022/06/20 03:48:04;;;;;;;12.90;9.97;;;25.10;48.70;;;;;;20844;6766;117621;-82
2022/06/20 03:50:39;;;;;;;15.00;11.07;;;25.00;49.10;;;;;;20586;6769;309848;-82
2022/06/20 03:53:15;;;;;;;14.53;9.97;;;25.40;49.50;;;;;;20845;6757;117790;-83
2022/06/20 03:56:07;;;;;;;11.77;10.30;;;25.40;48.90;;;;;;20879;6748;117282;-82
2022/06/20 03:58:49;;;;;;;13.60;11.17;;;25.50;48.70;;;;;;20601;6767;309884;-83
2022/06/20 04:01:28;;;;;;;12.93;10.82;;;25.40;48.60;;;;;;20544;6769;439057;-83
2022/06/20 04:04:05;;;;;;;15.47;10.50;;;25.80;48.10;;;;;;20855;6759;120126;-82
2022/06/20 04:06:41;;;;;;;13.43;10.40;;;25.70;48.10;;;;;;20859;6759;117413;-83
2022/06/20 04:12:33;;;;;;;18.50;10.60;;;25.30;48.40;;;;;;20690;6774;118293;-81
2022/06/20 04:15:18;;;;;;;16.40;11.20;;;25.30;48.40;;;;;;20633;6759;307286;-82
2022/06/20 04:21:02;;;;;;;12.43;9.17;;;25.40;48.70;;;;;;20568;6778;295998;-82
2022/06/20 04:23:54;;;;;;;10.00;8.10;;;25.70;48.80;;;;;;20907;6759;116199;-83
2022/06/20 04:26:56;;;;;;;8.70;7.63;;;25.80;48.40;;;;;;20880;6768;116299;-82
2022/06/20 04:29:35;;;;;;;9.00;8.13;;;25.80;48.50;;;;;;20666;6769;306453;-83
2022/06/20 04:32:18;;;;;;;11.43;7.83;;;26.60;47.00;;;;;;20701;6774;117542;-91
2022/06/20 04:34:57;;;;;;;9.73;7.70;;;26.90;46.90;;;;;;20699;6744;305274;-87
2022/06/20 04:37:46;;;;;;;9.50;7.47;;;26.90;46.90;;;;;;20824;6769;123838;-83
2022/06/20 04:40:27;;;;;;;9.27;7.23;;;26.90;46.60;;;;;;20647;6759;276735;-84
2022/06/20 04:43:10;;;;;;;9.18;7.18;;;27.20;45.70;;;;;;20647;6759;330830;-83
2022/06/20 04:45:49;;;;;;;9.23;7.70;;;27.20;45.70;;;;;;20643;6759;293229;-84
2022/06/20 04:48:25;;;;;;;8.35;7.40;;;27.30;45.90;;;;;;20647;6759;310492;-84
2022/06/20 04:51:00;;;;;;;11.77;8.67;;;27.40;46.20;;;;;;20587;6759;279541;-84
2022/06/20 04:53:36;;;;;;;10.07;8.20;;;27.50;47.20;;;;;;20892;6744;116985;-83
2022/06/20 04:56:11;;;;;;;8.90;8.10;;;27.10;47.20;;;;;;20894;6744;118218;-83
2022/06/20 04:58:53;;;;;;;11.30;9.17;;;26.70;48.00;;;;;;20688;6744;283292;-84
2022/06/20 05:01:30;;;;;;;9.82;8.85;;;26.80;49.10;;;;;;20580;6744;307814;-84
2022/06/20 05:04:18;;;;;;;10.93;9.37;;;27.30;48.00;;;;;;20657;6759;295256;-81
2022/06/20 05:06:55;;;;;;;14.47;10.03;;;27.30;48.00;;;;;;20886;6759;116391;-80
2022/06/20 05:09:34;;;;;;;12.80;9.37;;;27.10;48.10;;;;;;20910;6759;119438;-81
2022/06/20 05:12:23;;;;;;;14.63;10.03;;;27.00;48.40;;;;;;20496;6770;311828;-80
2022/06/20 05:15:05;;;;;;;10.70;9.77;;;27.00;48.40;;;;;;20916;6759;117347;-82
2022/06/20 05:17:41;;;;;;;14.48;11.48;;;27.00;48.20;;;;;;20581;6774;295316;-81
2022/06/20 05:20:30;;;;;;;14.90;10.73;;;27.20;47.10;;;;;;20878;6744;117662;-82
2022/06/20 05:23:12;;;;;;;11.70;10.43;;;27.00;46.90;;;;;;20851;6755;117804;-85
2022/06/20 05:25:49;;;;;;;13.97;10.77;;;26.70;47.80;;;;;;20654;6759;306283;-87
2022/06/20 05:28:24;;;;;;;12.13;10.93;;;26.70;47.80;;;;;;20601;6774;278122;-83
2022/06/20 05:31:00;;;;;;;12.53;10.63;;;27.00;47.50;;;;;;20816;6759;117291;-81
2022/06/20 05:33:45;;;;;;;10.00;9.07;;;26.90;47.70;;;;;;20790;6778;118055;-82
2022/06/20 05:36:32;;;;;;;14.87;10.83;;;26.60;48.30;;;;;;20641;6759;308926;-85
2022/06/20 05:39:24;;;;;;;13.63;10.57;;;26.80;49.10;;;;;;20882;6744;117327;-84
2022/06/20 05:42:01;;;;;;;15.33;10.70;;;26.80;49.10;;;;;;20776;6744;117930;-87
2022/06/20 05:44:37;;;;;;;13.37;11.73;;;26.60;49.80;;;;;;20657;6759;307512;-83
2022/06/20 05:47:29;;;;;;;13.02;10.55;;;26.80;50.80;;;;;;20668;6800;276871;-83
2022/06/20 05:50:07;;;;;;;14.47;10.73;;;27.20;51.00;;;;;;20839;6759;117384;-82
2022/06/20 05:52:43;;;;;;;14.50;10.17;;;27.00;50.00;;;;;;20584;6846;117830;-82
2022/06/20 05:55:38;;;;;;;13.43;10.07;;;26.70;50.30;;;;;;20815;6767;127184;-82
2022/06/20 05:58:13;;;;;;;15.23;9.93;;;26.40;50.70;;;;;;20853;6759;118039;-85
2022/06/20 06:00:49;;;;;;;13.50;10.27;;;26.20;51.30;;;;;;20843;6759;116267;-83
2022/06/20 06:03:55;;;;;;;14.60;10.50;;;25.80;51.80;;;;;;20859;6817;117723;-81
2022/06/20 06:06:31;;;;;;;13.13;10.75;;;25.80;51.80;;;;;;20398;6833;337239;-81
2022/06/20 06:09:17;;;;;;;11.10;9.53;;;26.50;50.80;;;;;;20644;6759;303451;-80
2022/06/20 06:11:59;;;;;;;10.97;9.10;;;26.50;50.80;;;;;;20701;6774;117656;-81
2022/06/20 06:14:34;;;;;;;9.77;8.77;;;26.40;50.40;;;;;;20886;6755;117294;-81
2022/06/20 06:17:14;;;;;;;12.97;8.90;;;26.00;51.20;;;;;;20885;6744;119055;-81
2022/06/20 06:19:50;;;;;;;14.57;8.97;;;26.00;51.10;;;;;;20924;6748;75763;-81
2022/06/20 06:22:33;;;;;;;10.90;9.47;;;26.50;52.30;;;;;;20496;6759;309791;-81
2022/06/20 06:25:14;;;;;;;10.80;9.70;;;26.50;51.70;;;;;;20663;6755;276157;-82
2022/06/20 06:27:50;;;;;;;13.53;8.70;;;27.00;50.40;;;;;;20817;6774;117343;-81
2022/06/20 06:30:36;;;;;;;11.50;9.03;;;27.00;50.00;;;;;;20839;6759;119478;-81
2022/06/20 06:33:24;;;;;;;11.50;9.63;;;26.80;50.30;;;;;;20678;6744;276912;-81
2022/06/20 06:36:00;;;;;;;12.60;9.20;;;27.00;50.80;;;;;;20911;6759;120525;-81
2022/06/20 06:38:35;;;;;;;10.47;9.37;;;27.10;50.80;;;;;;20604;6774;278638;-82
2022/06/20 06:41:17;;;;;;;11.03;10.10;;;27.50;51.00;;;;;;20805;6744;119117;-81
2022/06/20 06:43:51;;;;;;;13.17;9.90;;;27.60;50.70;;;;;;20876;6755;118134;-81
2022/06/20 06:46:39;;;;;;;15.20;10.60;;;27.40;51.00;;;;;;20909;6759;117017;-82
2022/06/20 06:49:24;;;;;;;15.33;11.60;;;27.20;51.50;;;;;;20896;6759;120395;-82
2022/06/20 06:51:59;;;;;;;11.47;10.07;;;27.00;51.00;;;;;;20693;6774;117712;-83
2022/06/20 06:54:57;;;;;;;11.77;10.63;;;27.20;51.10;;;;;;20662;6759;277207;-82
2022/06/20 06:57:37;;;;;;;15.17;10.33;;;27.20;51.00;;;;;;19927;6819;305793;-83
2022/06/20 07:00:19;;;;;;;12.80;11.07;;;27.80;50.30;;;;;;20555;6793;307870;-81
2022/06/20 07:02:54;;;;;;;13.07;11.70;;;28.40;48.70;;;;;;20653;6767;277232;-81
2022/06/20 07:05:33;;;;;;;14.87;10.47;;;28.90;46.70;;;;;;20849;6766;119104;-80
2022/06/20 07:08:12;;;;;;;12.53;10.07;;;28.40;47.70;;;;;;20764;6784;118155;-81
2022/06/20 07:11:09;;;;;;;15.55;11.12;;;28.40;47.70;;;;;;20564;6778;303213;-81
2022/06/20 07:13:44;;;;;;;11.15;9.95;;;28.70;49.10;;;;;;20649;6763;309878;-81
2022/06/20 07:16:24;;;;;;;15.10;9.80;;;29.90;45.80;;;;;;20746;6733;335136;-81
2022/06/20 07:18:59;;;;;;;10.77;9.67;;;29.90;45.80;;;;;;20945;6790;117092;-80
2022/06/20 07:21:35;;;;;;;12.43;9.77;;;29.80;45.90;;;;;;20835;6733;119886;-81
2022/06/20 07:24:16;;;;;;;10.23;9.33;;;29.50;46.80;;;;;;20948;6733;117060;-80
2022/06/20 07:27:09;;;;;;;13.73;10.53;;;29.20;47.70;;;;;;20752;6733;276827;-80
2022/06/20 07:29:51;;;;;;;11.30;10.20;;;29.40;48.70;;;;;;20749;6733;333443;-81
2022/06/20 07:32:27;;;;;;;13.40;9.93;;;29.90;48.00;;;;;;20808;6733;118591;-81
2022/06/20 07:35:03;;;;;;;10.30;9.30;;;29.90;47.90;;;;;;20968;6733;117120;-81
2022/06/20 07:37:39;;;;;;;10.97;9.60;;;29.70;47.90;;;;;;20762;6733;286621;-81
2022/06/20 07:40:27;;;;;;;10.10;9.10;;;29.90;47.90;;;;;;20964;6733;117141;-79
2022/06/20 07:43:10;;;;;;;10.37;9.20;;;29.70;47.70;;;;;;20751;6733;306964;-84
2022/06/20 07:45:46;;;;;;;11.10;9.20;;;29.80;46.70;;;;;;20736;6733;308751;-80
2022/06/20 07:48:27;;;;;;;9.57;8.63;;;30.00;46.60;;;;;;20972;6733;117257;-80
2022/06/20 07:51:16;;;;;;;9.60;8.70;;;29.90;46.70;;;;;;20703;6733;337297;-81
2022/06/20 07:54:13;;;;;;;10.53;8.13;;;30.00;46.20;;;;;;20978;6733;117677;-80
2022/06/20 07:56:48;;;;;;;9.50;8.17;;;29.90;46.20;;;;;;20957;6733;117251;-80
2022/06/20 07:59:31;;;;;;;12.47;8.07;;;29.80;47.20;;;;;;20940;6733;116844;-80
2022/06/20 08:02:13;;;;;;;11.55;8.13;;;29.70;47.10;;;;;;20622;6733;310196;-79
2022/06/20 08:04:48;;;;;;;8.60;7.70;;;30.20;45.80;;;;;;20759;6733;301056;-80
2022/06/20 08:07:27;;;;;;;8.10;7.10;;;30.80;44.40;;;;;;20728;6733;306090;-79
2022/06/20 08:10:07;;;;;;;7.93;7.23;;;31.20;42.50;;;;;;20758;6733;275938;-80
2022/06/20 08:13:01;;;;;;;8.90;6.62;;;31.50;42.90;;;;;;20517;6808;339406;-80
2022/06/20 08:16:06;;;;;;;7.00;6.30;;;31.80;42.20;;;;;;20801;6789;119788;-79
2022/06/20 08:18:40;;;;;;;9.60;7.20;;;31.60;41.50;;;;;;20756;6733;335357;-79
2022/06/20 08:21:19;;;;;;;8.30;6.80;;;31.80;41.40;;;;;;20659;6733;277646;-78
2022/06/20 08:23:58;;;;;;;8.17;7.33;;;32.10;41.50;;;;;;20955;6733;117565;-81
2022/06/20 08:26:45;;;;;;;9.57;7.47;;;32.30;41.90;;;;;;20752;6733;275492;-80
2022/06/20 08:29:21;;;;;;;9.47;6.60;;;32.60;40.10;;;;;;20196;6790;276834;-80
2022/06/20 08:31:58;;;;;;;8.20;6.70;;;32.60;40.10;;;;;;20628;6733;308182;-82
2022/06/20 08:34:34;;;;;;;9.13;6.50;;;32.90;38.90;;;;;;20938;6733;116833;-83
2022/06/20 08:37:09;;;;;;;12.93;6.37;;;32.70;38.90;;;;;;20922;6733;149324;-82
2022/06/20 08:39:45;;;;;;;6.70;6.00;;;32.40;39.70;;;;;;20947;6733;117292;-82
2022/06/20 08:42:34;;;;;;;9.80;5.87;;;32.30;40.20;;;;;;20765;6790;117261;-81
2022/06/20 08:45:13;;;;;;;7.57;6.87;;;32.30;40.00;;;;;;20872;6748;117337;-83
2022/06/20 08:48:02;;;;;;;6.97;5.87;;;32.20;39.90;;;;;;20826;6763;117367;-80
2022/06/20 08:51:05;;;;;;;9.57;6.47;;;32.30;40.10;;;;;;20596;6763;309753;-81
2022/06/20 08:53:49;;;;;;;7.67;6.43;;;32.70;38.10;;;;;;20623;6763;306678;-81
2022/06/20 08:56:45;;;;;;;10.53;6.47;;;33.20;37.50;;;;;;20628;6828;117233;-82
2022/06/20 08:59:24;;;;;;;7.87;6.25;;;33.30;37.70;;;;;;20619;6767;335912;-81
2022/06/20 09:02:19;;;;;;;10.13;6.23;;;33.50;37.30;;;;;;20480;6781;308335;-81
2022/06/20 09:05:17;;;;;;;7.10;6.10;;;33.80;37.30;;;;;;20162;6838;119452;-81
2022/06/20 09:08:19;;;;;;;6.00;5.40;;;33.80;37.30;;;;;;20780;6788;117901;-82
2022/06/20 09:11:00;;;;;;;5.60;5.10;;;33.60;37.30;;;;;;20787;6767;120903;-82
2022/06/20 09:13:33;;;;;;;5.30;4.80;;;33.40;36.80;;;;;;20837;6766;116885;-81
2022/06/20 09:16:09;;;;;;;10.80;5.10;;;33.40;36.30;;;;;;20834;6766;117300;-81
2022/06/20 09:18:48;;;;;;;7.70;4.93;;;33.40;35.90;;;;;;20847;6766;117631;-81
2022/06/20 09:21:36;;;;;;;5.27;4.77;;;33.40;34.50;;;;;;20743;6766;117398;-81
2022/06/20 09:24:26;;;;;;;6.27;4.30;;;33.20;33.60;;;;;;20316;6819;116827;-81
2022/06/20 09:27:12;;;;;;;5.10;4.70;;;33.20;33.70;;;;;;20895;6765;116027;-81
2022/06/20 09:30:00;;;;;;;6.77;4.43;;;33.20;33.70;;;;;;20897;6765;117079;-81
2022/06/20 09:32:59;;;;;;;5.00;4.40;;;33.10;33.50;;;;;;20729;6765;117257;-81
2022/06/20 09:35:54;;;;;;;4.95;4.60;;;33.10;33.30;;;;;;20658;6765;277619;-81
2022/06/20 09:38:49;;;;;;;5.20;4.70;;;33.50;32.70;;;;;;20839;6761;117208;-81
2022/06/20 09:41:32;;;;;;;7.00;4.70;;;33.70;32.60;;;;;;20474;6780;311761;-81
2022/06/20 09:44:27;;;;;;;9.93;4.77;;;34.00;32.00;;;;;;20874;6759;119001;-81
2022/06/20 09:47:22;;;;;;;5.47;4.97;;;34.00;32.00;;;;;;20833;6769;117568;-82
2022/06/20 09:50:38;;;;;;;5.60;5.10;;;34.00;32.30;;;;;;20672;6774;306814;-81
2022/06/20 09:53:44;;;;;;;5.07;4.67;;;34.30;31.60;;;;;;20836;6771;117514;-81
2022/06/20 09:56:26;;;;;;;7.97;4.80;;;34.30;31.50;;;;;;20856;6769;117732;-83
2022/06/20 09:59:09;;;;;;;5.97;4.60;;;34.10;31.10;;;;;;20730;6826;117866;-88
2022/06/20 10:01:50;;;;;;;5.30;4.80;;;33.90;31.60;;;;;;20500;6764;312223;-86
2022/06/20 10:04:49;;;;;;;5.00;4.60;;;33.90;32.20;;;;;;20805;6754;116966;-87
2022/06/20 10:07:41;;;;;;;5.50;4.60;;;33.90;31.60;;;;;;20837;6759;118930;-87
2022/06/20 10:10:53;;;;;;;5.35;4.70;;;33.70;32.20;;;;;;20683;6742;308557;-87
2022/06/20 10:13:28;;;;;;;11.53;4.87;;;33.90;31.50;;;;;;19733;7120;118736;-87
2022/06/20 10:16:24;;;;;;;6.47;4.50;;;34.00;30.60;;;;;;19536;7176;350738;-90
2022/06/20 10:19:22;;;;;;;6.17;4.43;;;34.20;30.40;;;;;;20263;6818;67649;-90
2022/06/20 10:22:11;;;;;;;7.20;4.33;;;34.20;31.10;;;;;;20668;6772;117620;-88
2022/06/20 10:25:00;;;;;;;4.40;4.00;;;34.20;31.10;;;;;;20359;6827;307251;-87
2022/06/20 10:27:52;;;;;;;4.37;3.97;;;34.50;30.00;;;;;;20576;6773;304205;-88
2022/06/20 10:30:30;;;;;;;5.93;4.10;;;34.90;29.40;;;;;;20859;6744;116835;-87
2022/06/20 10:33:26;;;;;;;4.73;3.83;;;35.00;29.70;;;;;;20895;6744;116980;-87
2022/06/20 10:36:18;;;;;;;8.43;4.53;;;34.90;30.00;;;;;;20643;6755;336151;-87
2022/06/20 10:38:57;;;;;;;4.80;4.37;;;35.20;30.00;;;;;;20834;6766;117433;-85
2022/06/20 10:41:39;;;;;;;5.00;4.47;;;35.20;30.00;;;;;;20646;6791;118936;-86
2022/06/20 10:44:23;;;;;;;4.40;4.10;;;35.20;30.50;;;;;;20836;6765;116977;-86
2022/06/20 10:47:08;;;;;;;5.27;4.30;;;35.10;30.00;;;;;;20588;6774;306326;-86
2022/06/20 10:49:43;;;;;;;7.53;4.30;;;35.50;29.30;;;;;;20810;6770;120504;-86
2022/06/20 10:52:59;;;;;;;6.60;4.60;;;35.60;29.60;;;;;;20511;6754;307203;-85
2022/06/20 10:55:37;;;;;;;5.23;4.20;;;35.80;28.90;;;;;;20844;6756;117205;-89
2022/06/20 10:58:30;;;;;;;7.40;4.03;;;35.70;29.30;;;;;;20836;6766;117018;-86
2022/06/20 11:01:15;;;;;;;4.30;4.00;;;35.50;29.50;;;;;;20735;6778;120336;-87
2022/06/20 11:03:53;;;;;;;4.53;3.70;;;35.30;29.60;;;;;;20759;6788;117958;-86
2022/06/20 11:06:49;;;;;;;4.30;3.90;;;35.00;29.60;;;;;;20803;6773;117687;-86
2022/06/20 11:09:24;;;;;;;5.05;3.83;;;34.80;29.90;;;;;;20534;6785;337134;-87
2022/06/20 11:12:00;;;;;;;5.57;3.95;;;35.10;29.70;;;;;;20510;6773;337375;-85
2022/06/20 11:14:39;;;;;;;5.33;3.90;;;35.50;29.90;;;;;;20818;6771;117593;-87
2022/06/20 11:17:21;;;;;;;3.80;3.60;;;35.50;29.80;;;;;;20791;6771;123381;-83
2022/06/20 11:20:33;;;;;;;4.67;3.50;;;35.40;29.90;;;;;;20629;6756;282207;-85
2022/06/20 11:23:15;;;;;;;4.07;3.67;;;35.50;29.10;;;;;;20609;6761;337901;-86
2022/06/20 11:26:17;;;;;;;5.37;3.33;;;35.70;28.20;;;;;;20863;6771;117300;-86
2022/06/20 11:29:03;;;;;;;4.10;3.60;;;35.10;29.00;;;;;;20767;6786;117342;-86
2022/06/20 11:32:01;;;;;;;3.97;3.57;;;35.00;29.20;;;;;;20490;6771;309937;-85
2022/06/20 11:35:00;;;;;;;3.80;3.50;;;35.10;29.30;;;;;;20820;6771;117544;-86
2022/06/20 11:38:03;;;;;;;3.70;3.40;;;34.80;29.80;;;;;;20798;6770;119242;-87
2022/06/20 11:40:58;;;;;;;3.80;3.50;;;34.70;29.70;;;;;;20836;6756;116988;-88
2022/06/20 11:44:06;;;;;;;4.30;3.63;;;34.60;29.90;;;;;;20612;6759;277082;-86
2022/06/20 11:46:56;;;;;;;3.80;3.50;;;34.80;29.30;;;;;;20650;6756;303743;-86
2022/06/20 11:50:05;;;;;;;4.00;3.30;;;34.90;29.20;;;;;;20683;6756;279087;-85
2022/06/20 11:52:47;;;;;;;4.07;3.53;;;34.90;29.20;;;;;;19773;6873;330523;-85
2022/06/20 11:55:27;;;;;;;4.13;3.13;;;34.50;30.00;;;;;;20859;6751;119780;-83
2022/06/20 11:58:09;;;;;;;3.73;3.07;;;34.50;30.00;;;;;;20801;6773;117130;-86
2022/06/20 12:00:51;;;;;;;3.53;3.22;;;34.10;30.30;;;;;;20510;6788;279571;-84
2022/06/20 12:03:36;;;;;;;5.17;3.87;;;34.20;30.40;;;;;;20867;6746;117507;-82
2022/06/20 12:06:22;;;;;;;4.57;3.30;;;34.00;30.40;;;;;;20643;6759;315598;-86
2022/06/20 12:09:26;;;;;;;5.47;3.60;;;34.00;30.50;;;;;;20814;6771;116744;-84
2022/06/20 12:12:25;;;;;;;4.22;3.40;;;33.70;30.70;;;;;;20465;6786;316460;-85
2022/06/20 12:15:27;;;;;;;7.60;3.40;;;33.50;30.70;;;;;;20906;6756;116995;-85
2022/06/20 12:18:31;;;;;;;5.63;3.13;;;33.10;31.10;;;;;;20807;6771;117090;-89
2022/06/20 12:24:07;;;;;;;3.37;3.03;;;32.30;32.50;;;;;;20873;6754;118956;-91
2022/06/20 12:26:44;;;;;;;4.97;3.13;;;32.20;33.10;;;;;;20862;6768;116070;-87
2022/06/20 12:29:20;;;;;;;3.43;3.13;;;32.10;33.40;;;;;;20888;6754;125718;-89
2022/06/20 12:31:56;;;;;;;4.83;3.50;;;32.10;34.10;;;;;;20517;6756;279477;-89
2022/06/20 12:34:51;;;;;;;4.87;3.00;;;32.40;33.10;;;;;;20851;6769;121403;-87
2022/06/20 12:37:30;;;;;;;4.13;3.13;;;32.30;32.90;;;;;;20806;6778;117840;-88
2022/06/20 12:40:25;;;;;;;3.40;3.07;;;32.00;33.30;;;;;;20816;6783;116703;-90
2022/06/20 12:43:11;;;;;;;3.97;3.20;;;31.70;33.70;;;;;;20844;6812;117441;-91
2022/06/20 12:45:50;;;;;;;4.00;3.20;;;31.60;34.10;;;;;;20605;6814;277856;-88
2022/06/20 12:48:30;;;;;;;6.50;3.10;;;31.80;33.80;;;;;;20897;6770;116927;-89
2022/06/20 12:51:33;;;;;;;3.07;2.87;;;31.90;33.30;;;;;;20396;6774;309323;-93
2022/06/20 12:54:12;;;;;;;3.03;2.80;;;31.90;33.30;;;;;;20535;6774;281300;-89
2022/06/20 12:57:15;;;;;;;3.37;2.80;;;32.20;33.60;;;;;;20819;6759;271662;-88
2022/06/20 13:00:01;;;;;;;3.40;3.10;;;32.10;33.60;;;;;;20850;6759;117267;-90
2022/06/20 13:03:09;;;;;;;3.40;3.10;;;31.90;33.60;;;;;;20674;6759;117527;-88
2022/06/20 13:06:25;;;;;;;4.28;3.60;;;31.60;33.70;;;;;;20623;6817;337147;-91
2022/06/20 13:09:12;;;;;;;6.97;3.47;;;31.70;33.50;;;;;;20765;6771;117461;-89
2022/06/20 13:12:08;;;;;;;4.03;3.53;;;31.30;34.10;;;;;;20494;6768;312693;-89
2022/06/20 13:15:07;;;;;;;3.27;2.97;;;31.20;34.90;;;;;;20773;6783;117260;-89
2022/06/20 13:18:03;;;;;;;3.53;3.00;;;30.90;34.80;;;;;;20366;6815;117878;-92
2022/06/20 13:20:41;;;;;;;2.90;2.63;;;30.50;35.10;;;;;;20742;6768;117381;-89
2022/06/20 13:23:23;;;;;;;3.00;2.53;;;30.30;35.60;;;;;;20830;6756;126834;-89
2022/06/20 13:26:25;;;;;;;3.33;2.70;;;30.20;35.90;;;;;;20596;6761;276370;-90
2022/06/20 13:29:01;;;;;;;4.53;3.10;;;30.50;35.40;;;;;;19787;7133;118556;-90
2022/06/20 13:31:37;;;;;;;3.73;3.10;;;30.40;36.10;;;;;;20752;6771;116970;-86
2022/06/20 13:34:16;;;;;;;7.87;3.30;;;30.40;36.10;;;;;;20833;6771;117249;-90
2022/06/20 13:37:01;;;;;;;4.80;3.37;;;30.40;36.60;;;;;;20823;6771;116770;-89
2022/06/20 13:39:47;;;;;;;4.30;3.40;;;30.40;37.00;;;;;;20629;6761;310322;-91
2022/06/20 13:42:23;;;;;;;5.57;4.07;;;30.70;36.60;;;;;;20708;6759;117398;-92
2022/06/20 13:45:08;;;;;;;6.97;4.07;;;30.70;36.60;;;;;;20815;6774;117004;-91
2022/06/20 13:47:46;;;;;;;9.60;3.60;;;30.40;36.80;;;;;;20800;6769;117807;-91
2022/06/20 13:50:34;;;;;;;4.10;3.77;;;30.20;37.90;;;;;;20837;6769;117627;-91
2022/06/20 13:53:30;;;;;;;7.43;3.90;;;29.80;37.80;;;;;;20764;6789;117203;-91
2022/06/20 13:56:05;;;;;;;6.83;3.77;;;29.80;37.80;;;;;;20805;6831;117546;-90
2022/06/20 13:58:41;;;;;;;5.67;3.57;;;29.60;38.00;;;;;;20821;6829;116508;-90
2022/06/20 14:01:16;;;;;;;7.13;4.00;;;29.50;38.20;;;;;;20531;6774;280394;-92
2022/06/20 14:03:56;;;;;;;4.20;3.80;;;29.70;38.00;;;;;;20664;6770;279120;-91